Walnut Creek, CA (94598)

4:37 AM PDT on May 06, 2015 (GMT -0700)
Walnut Creek | | Change Station
CLOSE
Current Station
Personal Weather Station
Location: Walnut Creek, CA
Elevation: 135 ft
Nearby Weather Stations

Elev 135 ft 37.92 °N, 122.03 °W | Updated 10 minutes ago

Partly Cloudy
Partly Cloudy
46.9 °F
Feels Like 47 °F
N
0.0
Wind Variable Wind from West

Today
High -- | Low -- °F
--% Chance of Precip.
Yesterday
High -- | Low -- °F
Precip. -- in
6:06 AM 8:03 PM
Waning Gibbous, 94% visible
Pressure 29.83 in
Visibility 10.0 miles
Clouds Clear
Windchill 47 °F
Dew Point 41 °F
Humidity 80%
Rainfall 0.00 in
Snow Depth Not available.
UV 0 out of 12
Pollen 6.60 out of 12
Air Quality Not available.
Flu Activity Sporadic
METAR KCCR 061053Z 20014KT 10SM CLR 11/07 A2986 RMK AO2 SLP099 T01110072

More Conditions Fewer Conditions

Pressure 29.83 in
Visibility 10.0 miles
Clouds Clear
Windchill 47 °F
Dew Point 41 °F
Humidity 80%
Rainfall 0.00 in
Snow Depth Not available.
UV 0 out of 12
Pollen 6.60 out of 12
Air Quality Not available.
Flu Activity Sporadic
METAR KCCR 061053Z 20014KT 10SM CLR 11/07 A2986 RMK AO2 SLP099 T01110072

More Conditions Fewer Conditions

10-Day Weather Forecast

Almanac

Astronomy

May. 06, 2015 Rise Set
Actual Time
Civil Twilight
Nautical Twilight
Astronomical Twilight
Moon
Length of Visible Light
Length of Day
Tomorrow will be .
, % of the Moon is Illuminated

Today's Extremes

State Highs State Lows

Community

WunderPhotos

Upload Photos

1,818,880 photos uploaded!

WunderBlogs® & News

Nearby

Air Quality

  Air Quality AQ Index Pollutant
Not available.

Snow Depth

Station Depth Elevation

Earthquake Activity

City Distance Mag. Time & Date
Minimum magnitude displayed is 2.5.

Coastal Water Temperatures

Place Temperature

Stations

Nearby Weather Stations

Station Location Temp. Windchill Dew Point Humidity Wind Precip. Elev Updated Type